1881 Hurricane NOT_NAMED (1881290N12318)


IBTrACS version v04r00. Visit IBTrACS website for data access.
Please direct all questions to the IBTrACS Q and A forum

Storm track - Intensity - Wind Radii - Intensity Data - Source Data - All data

Summary Information

Storm ID 1881290N12318
Start Oct 16 12Z
Max Intensity 105 kt (Oct 19 18Z), 954 mb (Oct 20 12Z)
End Oct 24 12Z
ATCF IDs
Track status Best track data.

Storm track plot

Map of storm track

Intensity plots

Map of storm track

Radial wind information

No radial wind information for this storm


Position and Intensity Table

BASIN ISO_TIME_________ NATURE LAT LON MLC WIND MLC PRES
degrees north degrees east kts mb
NA 1881-10-16 12:00:00 TS 12.00 -42.00 25
NA 15:00:00 TS 12.20 -42.66 27
NA 18:00:00 TS 12.40 -43.30 30
NA 21:00:00 TS 12.60 -43.90 37
NA 1881-10-17 00:00:00 TS 12.80 -44.50 45
NA 03:00:00 TS 13.01 -45.15 50
NA 06:00:00 TS 13.20 -45.80 55
NA 09:00:00 TS 13.33 -46.39 57
NA 12:00:00 TS 13.50 -47.00 60
NA 15:00:00 TS 13.78 -47.68 65
NA 18:00:00 TS 14.10 -48.40 70
NA 21:00:00 TS 14.35 -49.10 75
NA 1881-10-18 00:00:00 TS 14.60 -49.80 80
NA 03:00:00 TS 14.90 -50.51 85
NA 06:00:00 TS 15.20 -51.20 90
NA 09:00:00 TS 15.40 -51.85 95
NA 12:00:00 NR 15.70 -52.50 100
NA 15:00:00 NR 16.25 -53.19 100
NA 18:00:00 NR 16.90 -53.90 100
NA 21:00:00 NR 17.50 -54.60 100
NA 1881-10-19 00:00:00 NR 18.10 -55.30 100
NA 03:00:00 NR 18.70 -56.01 100
NA 06:00:00 NR 19.30 -56.70 100
NA 09:00:00 NR 19.90 -57.42 100
NA 12:00:00 NR 20.50 -58.00 100
NA 15:00:00 NR 21.11 -58.31 102
NA 18:00:00 NR 21.70 -58.50 105
NA 21:00:00 NR 22.29 -58.75 105
NA 1881-10-20 00:00:00 NR 22.80 -59.00 105
NA 03:00:00 NR 23.06 -59.25 105
NA 06:00:00 NR 23.40 -59.50 105
NA 09:00:00 NR 24.19 -59.76 105
NA 12:00:00 NR 25.00 -60.00 105 954
NA 15:00:00 NR 25.47 -60.21 105
NA 18:00:00 NR 25.80 -60.40 105
NA 21:00:00 NR 26.15 -60.59 105
NA 1881-10-21 00:00:00 NR 26.50 -60.80 105
NA 03:00:00 NR 26.90 -61.08 100
NA 06:00:00 TS 27.30 -61.40 95
NA 09:00:00 TS 27.62 -61.74 92
NA 12:00:00 TS 28.00 -62.00 90
NA 15:00:00 TS 28.49 -62.17 90
NA 18:00:00 TS 29.20 -62.00 90 975
NA 21:00:00 TS 30.26 -61.40 90
NA 1881-10-22 00:00:00 TS 31.40 -60.30 90
NA 03:00:00 TS 32.29 -58.77 90
NA 06:00:00 TS 33.10 -57.00 90
NA 09:00:00 TS 34.03 -55.27 90
NA 12:00:00 TS 34.80 -53.70 90
NA 15:00:00 TS 35.22 -52.51 90
NA 18:00:00 TS 35.50 -51.50 90
NA 21:00:00 TS 35.85 -50.39 90
NA 1881-10-23 00:00:00 TS 36.20 -49.30 90
NA 03:00:00 TS 36.56 -48.25 90
NA 06:00:00 TS 36.90 -47.20 90
NA 09:00:00 TS 37.10 -46.26 90
NA 12:00:00 TS 37.50 -45.00 90
NA 15:00:00 TS 38.40 -42.96 85
NA 18:00:00 TS 39.50 -40.60 80
NA 21:00:00 TS 40.50 -38.44 70
NA 1881-10-24 00:00:00 ET 41.50 -36.30 60
NA 03:00:00 ET 42.50 -34.10 52
NA 06:00:00 ET 43.50 -31.90 45
NA 09:00:00 ET 44.51 -29.71 45
NA 12:00:00 ET 45.50 -27.50 45 991

Source Information

Agency Information
USA
TOKYO
CMA
HKO
NEWDELHI
REUNION
BOM
NADI
WELLINGTON
DS824
TD9636
TD9635
NEUMANN
MLC

All available IBTrACS Data

SEASON BASIN SUBBASIN ISO_TIME_________ NATURE LAT LON DIST2LAND LANDFALL IFLAG USA SSHS MLC LAT MLC LON MLC CLASS MLC WIND MLC PRES STORM SPEED STORM DIR
Year degrees north degrees east km km 1 degrees north degrees east kts mb kts degrees
1881 NA NA 1881-10-16 12:00:00 TS 12.00 -42.00 1338 1303 _____________O -1 12.00 -42.00 TD 25 14 287
1881 NA NA 15:00:00 TS 12.20 -42.66 1295 1264 _____________P -1 12.20 -42.66 TD 27 13 287
1881 NA NA 18:00:00 TS 12.40 -43.30 1264 1235 _____________O -1 12.40 -43.30 TD 30 13 288
1881 NA NA 21:00:00 TS 12.60 -43.90 1235 1210 _____________P -1 12.60 -43.90 TD 37 12 289
1881 NA NA 1881-10-17 00:00:00 TS 12.80 -44.50 1210 1189 _____________O -1 12.80 -44.50 TS 45 13 288
1881 NA NA 03:00:00 TS 13.01 -45.15 1182 1165 _____________P -1 13.01 -45.15 TS 50 13 288
1881 NA NA 06:00:00 TS 13.20 -45.80 1165 1134 _____________O -1 13.20 -45.80 TS 55 13 285
1881 NA NA 09:00:00 TS 13.33 -46.39 1134 1114 _____________P -1 13.33 -46.39 TS 57 12 284
1881 NA NA 12:00:00 TS 13.50 -47.00 1114 1098 _____________O -1 13.50 -47.00 TS 60 13 290
1881 NA NA 15:00:00 TS 13.78 -47.68 1103 1097 _____________P -1 13.78 -47.68 TS 65 15 294
1881 NA NA 18:00:00 TS 14.10 -48.40 1097 1086 _____________O -1 14.10 -48.40 HU 70 15 292
1881 NA NA 21:00:00 TS 14.35 -49.10 1086 1085 _____________P -1 14.35 -49.10 HU 75 14 290
1881 NA NA 1881-10-18 00:00:00 TS 14.60 -49.80 1086 1078 _____________O -1 14.60 -49.80 HU 80 15 292
1881 NA NA 03:00:00 TS 14.90 -50.51 1086 1082 _____________P -1 14.90 -50.51 HU 85 15 294
1881 NA NA 06:00:00 TS 15.20 -51.20 1091 1087 _____________O -1 15.20 -51.20 HU 90 14 291
1881 NA NA 09:00:00 TS 15.40 -51.85 1093 1077 _____________P -1 15.40 -51.85 HU 95 14 292
1881 NA NA 12:00:00 NR 15.70 -52.50 1077 1044 _____________O -1 15.70 -52.50 MH 100 15 303
1881 NA NA 15:00:00 NR 16.25 -53.19 1044 1034 _____________P -1 16.25 -53.19 MH 100 18 312
1881 NA NA 18:00:00 NR 16.90 -53.90 1034 1025 _____________O -1 16.90 -53.90 MH 100 18 313
1881 NA NA 21:00:00 NR 17.50 -54.60 1027 1021 _____________P -1 17.50 -54.60 MH 100 18 312
1881 NA NA 1881-10-19 00:00:00 NR 18.10 -55.30 1030 1012 _____________O -1 18.10 -55.30 MH 100 18 312
1881 NA NA 03:00:00 NR 18.70 -56.01 1012 941 _____________P -1 18.70 -56.01 MH 100 18 312
1881 NA NA 06:00:00 NR 19.30 -56.70 941 877 _____________O -1 19.30 -56.70 MH 100 18 312
1881 NA NA 09:00:00 NR 19.90 -57.42 877 830 _____________P -1 19.90 -57.42 MH 100 17 314
1881 NA NA 12:00:00 NR 20.50 -58.00 830 816 _____________O -1 20.50 -58.00 MH 100 15 325
1881 NA NA 15:00:00 NR 21.11 -58.31 821 815 _____________P -1 21.11 -58.31 MH 102 13 339
1881 NA NA 18:00:00 NR 21.70 -58.50 828 823 _____________O -1 21.70 -58.50 MH 105 13 341
1881 NA NA 21:00:00 NR 22.29 -58.75 832 832 _____________P -1 22.29 -58.75 MH 105 12 337
1881 NA NA 1881-10-20 00:00:00 NR 22.80 -59.00 844 840 _____________O -1 22.80 -59.00 MH 105 9 329
1881 NA NA 03:00:00 NR 23.06 -59.25 839 837 _____________P -1 23.06 -59.25 MH 105 8 323
1881 NA NA 06:00:00 NR 23.40 -59.50 844 844 _____________O -1 23.40 -59.50 MH 105 12 338
1881 NA NA 09:00:00 NR 24.19 -59.76 883 883 _____________P -1 24.19 -59.76 MH 105 17 344
1881 NA NA 12:00:00 NR 25.00 -60.00 937 937 _____________O -1 25.00 -60.00 MH 105 954 14 342
1881 NA NA 15:00:00 NR 25.47 -60.21 969 963 _____________P -1 25.47 -60.21 MH 105 9 336
1881 NA NA 18:00:00 NR 25.80 -60.40 985 985 _____________O -1 25.80 -60.40 MH 105 8 333
1881 NA NA 21:00:00 NR 26.15 -60.59 1002 1002 _____________P -1 26.15 -60.59 MH 105 8 333
1881 NA NA 1881-10-21 00:00:00 NR 26.50 -60.80 1030 1030 _____________O -1 26.50 -60.80 MH 105 9 329
1881 NA NA 03:00:00 NR 26.90 -61.08 1056 1056 _____________P -1 26.90 -61.08 MH 100 10 326
1881 NA NA 06:00:00 TS 27.30 -61.40 1083 1083 _____________O -1 27.30 -61.40 HU 95 9 321
1881 NA NA 09:00:00 TS 27.62 -61.74 1102 1099 _____________P -1 27.62 -61.74 HU 92 9 323
1881 NA NA 12:00:00 TS 28.00 -62.00 1134 1134 _____________O -1 28.00 -62.00 HU 90 9 337
1881 NA NA 15:00:00 TS 28.49 -62.17 1180 1180 _____________P -1 28.49 -62.17 HU 90 12 1
1881 NA NA 18:00:00 TS 29.20 -62.00 1261 1261 _____________O -1 29.20 -62.00 HU 90 975 19 21
1881 NA NA 21:00:00 TS 30.26 -61.40 1395 1395 _____________P -1 30.26 -61.40 HU 90 27 34
1881 NA NA 1881-10-22 00:00:00 TS 31.40 -60.30 1416 1372 _____________O -1 31.40 -60.30 HU 90 30 48
1881 NA NA 03:00:00 TS 32.29 -58.77 1369 1358 _____________P -1 32.29 -58.77 HU 90 33 59
1881 NA NA 06:00:00 TS 33.10 -57.00 1363 1337 _____________O -1 33.10 -57.00 HU 90 34 59
1881 NA NA 09:00:00 TS 34.03 -55.27 1340 1311 _____________P -1 34.03 -55.27 HU 90 32 58
1881 NA NA 12:00:00 TS 34.80 -53.70 1312 1269 _____________O -1 34.80 -53.70 HU 90 26 62
1881 NA NA 15:00:00 TS 35.22 -52.51 1269 1241 _____________P -1 35.22 -52.51 HU 90 19 69
1881 NA NA 18:00:00 TS 35.50 -51.50 1243 1220 _____________O -1 35.50 -51.50 HU 90 18 70
1881 NA NA 21:00:00 TS 35.85 -50.39 1223 1198 _____________P -1 35.85 -50.39 HU 90 19 69
1881 NA NA 1881-10-23 00:00:00 TS 36.20 -49.30 1201 1188 _____________O -1 36.20 -49.30 HU 90 19 68
1881 NA NA 03:00:00 TS 36.56 -48.25 1186 1179 _____________P -1 36.56 -48.25 HU 90 18 67
1881 NA NA 06:00:00 TS 36.90 -47.20 1186 1186 _____________O -1 36.90 -47.20 HU 90 17 71
1881 NA NA 09:00:00 TS 37.10 -46.26 1199 1199 _____________P -1 37.10 -46.26 HU 90 19 71
1881 NA NA 12:00:00 TS 37.50 -45.00 1214 1214 _____________O -1 37.50 -45.00 HU 90 29 64
1881 NA NA 15:00:00 TS 38.40 -42.96 1233 1233 _____________P -1 38.40 -42.96 HU 85 40 60
1881 NA NA 18:00:00 TS 39.50 -40.60 1287 1285 _____________O -1 39.50 -40.60 HU 80 41 59
1881 NA NA 21:00:00 TS 40.50 -38.44 1360 1360 _____________P -1 40.50 -38.44 HU 70 38 59
1881 NA NA 1881-10-24 00:00:00 ET 41.50 -36.30 1446 1446 _____________O -1 41.50 -36.30 EX 60 38 58
1881 NA NA 03:00:00 ET 42.50 -34.10 1547 1547 _____________P -1 42.50 -34.10 EX 52 38 58
1881 NA NA 06:00:00 ET 43.50 -31.90 1661 1638 _____________O -1 43.50 -31.90 EX 45 38 58
1881 NA NA 09:00:00 ET 44.51 -29.71 1632 1440 _____________P -1 44.51 -29.71 EX 45 37 57
1881 NA NA 12:00:00 ET 45.50 -27.50 1427 _____________O -1 45.50 -27.50 EX 45 991 37 57